METAR AND TAF INFORMATION
METAR FOR PMDY
ADDS - METARS form results

(0535 UTC 24 June 2018)
Data provider http://aviationweather.gov/adds/metars/
 
METAR text: PMDY 240456Z AUTO 12009KT 10SM SCT009 27/24 A3011 RMK AO2 SLP195 T02670239
Conditions at: PMDY (MIDWAY ISLAND NA, HI, US) observed 0456 UTC 24 June 2018
Temperature: 26.7°C (80°F)
Dewpoint: 23.9°C (75°F) [RH = 85%]
Pressure (altimeter): 30.11 inches Hg (1019.7 mb)
[Sea-level pressure: 1019.5 mb]
Winds: from the ESE (120 degrees) at 10 MPH (9 knots; 4.7 m/s)
Visibility: 10 or more miles (16+ km)
Ceiling: at least 12,000 feet AGL
Clouds: scattered clouds at 900 feet AGL
Weather: automated observation with no human augmentation;
there may or may not be significant weather present at this time

METAR text: PMDY 240438Z AUTO 12009KT 10SM SCT009 27/24 A3010 RMK AO2
Conditions at: PMDY (MIDWAY ISLAND NA, HI, US) observed 0438 UTC 24 June 2018
Temperature: 27.0°C (81°F)
Dewpoint: 24.0°C (75°F) [RH = 84%]
Pressure (altimeter): 30.10 inches Hg (1019.4 mb)
Winds: from the ESE (120 degrees) at 10 MPH (9 knots; 4.7 m/s)
Visibility: 10 or more miles (16+ km)
Ceiling: at least 12,000 feet AGL
Clouds: scattered clouds at 900 feet AGL
Weather: automated observation with no human augmentation;
there may or may not be significant weather present at this time

Forecast for: PMDY (MIDWAY ISLAND NA, HI, US)
Text: PMDY 240520Z 2406/2506 12010KT P6SM SCT009 SCT020
Forecast period: 0600 UTC 24 June 2018 to 0600 UTC 25 June 2018
Forecast type: FROM: standard forecast or significant change
Winds: from the ESE (120 degrees) at 12 MPH (10 knots; 5.2 m/s)
Visibility: 6 or more miles (10+ km)
Clouds: scattered clouds at 900 feet AGL
scattered clouds at 2000 feet AGL
Weather: no significant weather forecast for this period

 AIRPORT MAP

 RUNWAY INFORMATION
Runway 06 Runway length 7904 ft Runway width 200 ft
Runway elevation 13 ft Runway displaced threshold 0 ft Runway heading 69
Runway 24 Runway length 7904 ft Runway width 200 ft
Runway elevation 7 ft Runway displaced threshold 0 ft Runway heading 249
Runway 15 Runway length 0 ft Runway width 0 ft
Runway elevation 6 ft Runway displaced threshold 0 ft Runway heading 0
Runway 33 Runway length 0 ft Runway width 0 ft
Runway elevation 7 ft Runway displaced threshold 0 ft Runway heading 0

 AIRPORT FREQUENCIES
Type AWOS Name AWOS 3 Frequency 118.325 MHZ
Type CTAF Name CTAF Frequency 122.9 MHZ
Type RDO Name RDO Frequency 126.2 MHZ

 AIRPORT NEAR NAVIGATION AIDS
Type NDB Name Midway Frequency 400 KHZ



Powered by Virtual Airlines Manager [v2.6.2]